Tripoli, Lebanon

1:04 PM EET on November 23, 2014 (GMT +0200)
Bsarma - By Tony Abdou | Change Station
CLOSE
Current Station
Personal Weather Station
Location: Bsarma - el Koura, North Lebanon
Elevation: 873 ft
Nearby Weather Stations

Elev 873 ft 34.34 °N, 35.84 °E | Updated 8 seconds ago

Overcast
Overcast
61.9 °F
Feels Like 61.9 °F
N
9.2
Wind Variable Wind from North
Gusts 9.2 mph

Today
High -- | Low -- °F
--% Chance of Precip.
Yesterday
High -- | Low -- °F
Precip. -- in
6:17 AM 4:28 PM
New Moon, 1% visible
Pressure 30.01 in
Visibility 5.0 miles
Clouds Mostly Cloudy 2300 ft
Dew Point 51 °F
Humidity 68%
Rainfall 0.00 in
Snow Depth Not available.
UV 3 out of 12
Pollen Not available.
Air Quality Not available.
Flu Activity Not available.
METAR OLBA 231000Z 09005KT 8000 RA BKN023 16/11 Q1016

More Conditions Fewer Conditions

Pressure 30.01 in
Visibility 5.0 miles
Clouds Mostly Cloudy 2300 ft
Dew Point 51 °F
Humidity 68%
Rainfall 0.00 in
Snow Depth Not available.
UV 3 out of 12
Pollen Not available.
Air Quality Not available.
Flu Activity Not available.
METAR OLBA 231000Z 09005KT 8000 RA BKN023 16/11 Q1016

More Conditions Fewer Conditions

10-Day Weather Forecast

Almanac

Astronomy

Nov. 23, 2014 Rise Set
Actual Time
Civil Twilight
Nautical Twilight
Astronomical Twilight
Moon
Length of Visible Light
Length of Day
Tomorrow will be .
, % of the Moon is Illuminated

Today's Extremes

Country Highs Country Lows

Community

WunderPhotos

Upload Photos

1,773,033 photos uploaded!

WunderBlogs® & News

Nearby

Air Quality

  Air Quality AQ Index Pollutant
Not available.

Snow Depth

Station Depth Elevation

Earthquake Activity

City Distance Mag. Time & Date
Minimum magnitude displayed is 2.5.

Coastal Water Temperatures

Place Temperature

Nearby Weather Stations